Hodgesville, West Virginia
Current Conditions -  °F | °C
As of 9:15 AM on Wednesday 28 Jan 2015 (Local Time) from KW22 Reporting Station
Light Snow Light Snow  
Wind Chill:   Ceiling: 1700
Heat Index: 16°   Visibility: 5mi
Dew Point: 12°   Wind: 9mph
Humidity: 86%   Direction: 240°WSW
Pressure: 30.29"   Gusts: NA
Location:  38.998°N, 80.2065°W
Report Text: KW22 281415Z AUTO 24008KT 5SM -SN OVC017 M09/M11 A3029 RMK AO2
Loading
Personal Weather Stations






























Interactive Weather Map New forecast layout! Learn more

10-Day Weather Forecast

Advertisements
Track Severe Weather on mobile